createdAt,value
2023-04-10T00:02:14.698Z,11.88
2023-04-10T00:04:43.047Z,11.63
2023-04-10T00:07:11.414Z,11.15
2023-04-10T00:09:39.536Z,11.98
2023-04-10T00:12:07.885Z,12.25
2023-04-10T00:14:36.181Z,11.00
2023-04-10T00:17:04.517Z,11.00
2023-04-10T00:19:32.727Z,11.35
2023-04-10T00:22:00.962Z,11.27
2023-04-10T00:24:29.174Z,11.57
2023-04-10T00:26:57.489Z,11.35
2023-04-10T00:29:25.787Z,10.80
2023-04-10T00:31:54.254Z,10.52
2023-04-10T00:34:22.501Z,10.40
2023-04-10T00:36:50.850Z,10.90
2023-04-10T00:39:19.965Z,13.45
2023-04-10T00:41:48.262Z,10.63
2023-04-10T00:44:16.796Z,11.48
2023-04-10T00:46:45.133Z,11.38
2023-04-10T00:49:13.611Z,11.48
2023-04-10T00:51:41.946Z,10.27
2023-04-10T00:54:11.579Z,11.35
2023-04-10T00:56:40.445Z,10.98
2023-04-10T00:59:08.715Z,10.88
2023-04-10T01:01:37.056Z,11.32
2023-04-10T01:04:05.973Z,9.75
2023-04-10T01:06:40.365Z,10.95
2023-04-10T01:09:25.026Z,11.63
2023-04-10T01:12:10.190Z,11.15
2023-04-10T01:14:47.383Z,11.02
2023-04-10T01:17:43.234Z,10.60
2023-04-10T01:20:24.230Z,11.45
2023-04-10T01:23:12.350Z,10.98
2023-04-10T01:25:49.674Z,10.65
2023-04-10T01:28:39.782Z,11.40
2023-04-10T01:31:10.994Z,11.00
2023-04-10T01:33:48.519Z,10.38
2023-04-10T01:36:24.730Z,10.63
2023-04-10T01:38:55.556Z,10.55
2023-04-10T01:41:25.426Z,10.02
2023-04-10T01:43:55.672Z,9.77
2023-04-10T01:46:25.743Z,10.63
2023-04-10T01:48:56.709Z,9.48
2023-04-10T01:51:25.314Z,9.80
2023-04-10T01:56:26.285Z,10.40
2023-04-10T01:58:54.708Z,10.75
2023-04-10T02:01:29.599Z,9.70
2023-04-10T02:04:01.294Z,9.20
2023-04-10T02:07:00.500Z,9.35
2023-04-10T02:10:20.968Z,9.73
2023-04-10T02:12:56.077Z,10.05
2023-04-10T02:15:26.505Z,9.32
2023-04-10T02:17:57.050Z,10.13
2023-04-10T02:20:26.038Z,9.77
2023-04-10T02:22:54.797Z,9.15
2023-04-10T02:25:23.235Z,9.73
2023-04-10T02:27:51.341Z,9.88
2023-04-10T02:30:19.496Z,9.45
2023-04-10T02:32:47.789Z,10.13
2023-04-10T02:35:18.741Z,9.05
2023-04-10T02:37:47.248Z,8.95
2023-04-10T02:40:16.622Z,8.88
2023-04-10T02:42:54.880Z,8.75
2023-04-10T02:45:23.258Z,8.02
2023-04-10T02:47:52.379Z,9.80
2023-04-10T02:50:21.091Z,8.95
2023-04-10T02:52:49.244Z,9.93
2023-04-10T02:55:17.663Z,9.27
2023-04-10T02:57:45.845Z,9.15
2023-04-10T03:00:14.588Z,8.90
2023-04-10T03:03:15.313Z,9.70
2023-04-10T03:05:49.430Z,9.80
2023-04-10T03:08:22.185Z,8.30
2023-04-10T03:10:51.301Z,8.63
2023-04-10T03:13:19.361Z,9.18
2023-04-10T03:15:47.946Z,9.10
2023-04-10T03:18:16.287Z,9.93
2023-04-10T03:20:46.199Z,9.25
2023-04-10T03:23:14.460Z,8.50
2023-04-10T03:25:42.652Z,8.95
2023-04-10T03:28:12.126Z,8.57
2023-04-10T03:30:40.405Z,8.02
2023-04-10T03:33:09.580Z,8.90
2023-04-10T03:35:37.796Z,9.40
2023-04-10T03:38:08.129Z,8.63
2023-04-10T03:40:37.098Z,8.77
2023-04-10T03:43:07.494Z,10.00
2023-04-10T03:48:04.518Z,9.13
2023-04-10T03:50:41.778Z,8.90
2023-04-10T03:53:10.738Z,8.13
2023-04-10T03:55:39.424Z,8.32
2023-04-10T03:58:07.691Z,8.43
2023-04-10T04:00:36.622Z,8.60
2023-04-10T04:03:23.102Z,8.57
2023-04-10T04:05:54.114Z,8.27
2023-04-10T04:08:45.122Z,7.53
2023-04-10T04:11:20.371Z,8.70
2023-04-10T04:14:04.298Z,7.95
2023-04-10T04:16:45.837Z,7.93
2023-04-10T04:19:26.964Z,8.27
2023-04-10T04:22:24.460Z,8.60
2023-04-10T04:25:04.625Z,8.38
2023-04-10T04:28:01.715Z,8.82
2023-04-10T04:30:35.921Z,8.57
2023-04-10T04:33:32.957Z,8.02
2023-04-10T04:36:11.076Z,7.88
2023-04-10T04:41:27.430Z,7.80
2023-04-10T04:44:24.610Z,7.70
2023-04-10T04:47:13.133Z,7.32
2023-04-10T04:49:59.498Z,8.80
2023-04-10T04:52:44.778Z,7.65
2023-04-10T04:58:21.401Z,8.30
2023-04-10T05:01:11.140Z,7.85
2023-04-10T05:04:14.752Z,8.55
2023-04-10T05:06:55.329Z,8.55
2023-04-10T05:09:40.223Z,7.43
2023-04-10T05:12:37.280Z,8.32
2023-04-10T05:15:21.825Z,7.50
2023-04-10T05:18:08.770Z,7.70
2023-04-10T05:20:57.596Z,7.45
2023-04-10T05:23:45.978Z,8.48
2023-04-10T05:26:40.453Z,8.77
2023-04-10T05:29:13.749Z,7.90
2023-04-10T05:32:07.791Z,8.25
2023-04-10T05:34:54.209Z,7.60
2023-04-10T05:37:40.618Z,8.63
2023-04-10T05:40:30.717Z,8.07
2023-04-10T05:43:15.274Z,8.40
2023-04-10T05:46:02.605Z,8.90
2023-04-10T05:49:00.494Z,9.02
2023-04-10T05:51:34.406Z,8.77
2023-04-10T05:54:28.952Z,8.43
2023-04-10T05:57:17.310Z,7.95
2023-04-10T06:00:09.198Z,8.02
2023-04-10T06:03:06.221Z,7.30
2023-04-10T06:05:40.280Z,7.50
2023-04-10T06:08:09.074Z,8.10
2023-04-10T06:10:37.365Z,7.93
2023-04-10T06:13:05.594Z,7.95
2023-04-10T06:15:33.977Z,9.00
2023-04-10T06:18:02.294Z,8.82
2023-04-10T06:23:00.038Z,6.72
2023-04-10T06:25:28.216Z,8.00
2023-04-10T06:27:56.848Z,8.55
2023-04-10T06:30:25.006Z,8.15
2023-04-10T06:32:53.310Z,8.43
2023-04-10T06:35:22.132Z,8.35
2023-04-10T06:37:50.350Z,8.35
2023-04-10T06:40:18.824Z,7.75
2023-04-10T06:42:47.160Z,7.50
2023-04-10T06:45:38.468Z,7.72
2023-04-10T06:48:07.321Z,7.97
2023-04-10T06:53:03.501Z,7.22
2023-04-10T06:55:31.965Z,7.43
2023-04-10T06:58:00.258Z,7.28
2023-04-10T07:00:28.567Z,6.68
2023-04-10T07:02:56.820Z,7.45
2023-04-10T07:05:25.188Z,7.07
2023-04-10T07:07:53.430Z,6.80
2023-04-10T07:10:21.662Z,7.85
2023-04-10T07:12:49.980Z,6.93
2023-04-10T07:15:18.193Z,7.38
2023-04-10T07:17:48.369Z,7.68
2023-04-10T07:20:16.615Z,7.07
2023-04-10T07:22:44.845Z,6.53
2023-04-10T07:25:13.135Z,6.57
2023-04-10T07:27:41.413Z,7.40
2023-04-10T07:30:11.721Z,9.20
2023-04-10T07:32:41.546Z,8.48
2023-04-10T07:35:10.289Z,8.23
2023-04-10T07:40:08.442Z,8.80
2023-04-10T07:42:37.009Z,8.40
2023-04-10T07:45:05.575Z,8.23
2023-04-10T07:47:33.942Z,7.88
2023-04-10T07:50:02.278Z,9.23
2023-04-10T07:52:30.635Z,8.68
2023-04-10T07:54:58.678Z,8.55
2023-04-10T07:57:26.901Z,8.90
2023-04-10T07:59:55.075Z,8.70
2023-04-10T08:02:23.415Z,9.07
2023-04-10T08:04:52.001Z,8.75
2023-04-10T08:07:21.668Z,9.85
2023-04-10T08:09:50.165Z,8.95
2023-04-10T08:12:18.380Z,9.63
2023-04-10T08:14:46.782Z,8.65
2023-04-10T08:17:15.169Z,9.15
2023-04-10T08:19:43.699Z,8.80
2023-04-10T08:22:12.021Z,8.90
2023-04-10T08:24:40.245Z,9.18
2023-04-10T08:27:08.603Z,8.80
2023-04-10T08:29:36.852Z,9.98
2023-04-10T08:32:05.317Z,10.05
2023-04-10T08:34:33.632Z,8.98
2023-04-10T08:37:05.536Z,8.48
2023-04-10T08:39:36.413Z,9.02
2023-04-10T08:42:04.828Z,8.57
2023-04-10T08:44:32.948Z,9.05
2023-04-10T08:47:02.904Z,9.45
2023-04-10T08:49:56.752Z,9.38
2023-04-10T08:52:31.371Z,10.20
2023-04-10T08:55:03.231Z,9.02
2023-04-10T08:57:31.660Z,10.23
2023-04-10T09:00:04.135Z,9.60
2023-04-10T09:02:42.425Z,9.63
2023-04-10T09:05:14.338Z,8.57
2023-04-10T09:07:42.639Z,10.38
2023-04-10T09:10:11.050Z,8.70
2023-04-10T09:12:49.508Z,9.13
2023-04-10T09:15:17.685Z,10.32
2023-04-10T09:18:04.147Z,10.55
2023-04-10T09:20:33.049Z,8.85
2023-04-10T09:23:01.354Z,9.07
2023-04-10T09:25:37.378Z,9.45
2023-04-10T09:28:08.146Z,10.52
2023-04-10T09:30:43.196Z,9.90
2023-04-10T09:33:25.602Z,9.80
2023-04-10T09:35:54.339Z,10.18
2023-04-10T09:38:22.842Z,9.55
2023-04-10T09:40:52.350Z,9.35
2023-04-10T09:43:25.100Z,9.88
2023-04-10T09:45:56.202Z,11.07
2023-04-10T09:48:26.021Z,9.60
2023-04-10T09:50:54.724Z,9.93
2023-04-10T09:53:23.113Z,10.13
2023-04-10T09:55:51.688Z,9.30
2023-04-10T09:58:20.023Z,9.70
2023-04-10T10:00:49.641Z,10.57
2023-04-10T10:03:19.904Z,10.10
2023-04-10T10:05:52.359Z,9.90
2023-04-10T10:08:22.011Z,10.10
2023-04-10T10:10:55.431Z,9.38
2023-04-10T10:13:35.405Z,9.95
2023-04-10T10:16:25.040Z,9.45
2023-04-10T10:19:11.041Z,8.63
2023-04-10T10:21:39.626Z,9.73
2023-04-10T10:24:10.813Z,9.73
2023-04-10T10:26:42.820Z,9.85
2023-04-10T10:29:11.151Z,9.43
2023-04-10T10:31:39.472Z,9.02
2023-04-10T10:34:07.815Z,9.07
2023-04-10T10:36:37.579Z,9.68
2023-04-10T10:39:08.649Z,9.65
2023-04-10T10:41:45.581Z,10.70
2023-04-10T10:45:07.414Z,10.98
2023-04-10T10:47:45.236Z,9.63
2023-04-10T10:50:13.726Z,10.63
2023-04-10T10:52:45.633Z,9.88
2023-04-10T10:55:23.085Z,10.80
2023-04-10T10:57:52.063Z,10.25
2023-04-10T11:00:23.564Z,10.75
2023-04-10T11:03:10.090Z,11.15
2023-04-10T11:05:52.407Z,11.13
2023-04-10T11:08:41.823Z,11.70
2023-04-10T11:11:14.837Z,10.82
2023-04-10T11:13:44.250Z,10.85
2023-04-10T11:16:13.761Z,11.30
2023-04-10T11:18:55.872Z,10.45
2023-04-10T11:21:31.075Z,11.60
2023-04-10T11:23:59.119Z,10.98
2023-04-10T11:26:36.556Z,10.13
2023-04-10T11:29:14.038Z,11.10
2023-04-10T11:31:43.574Z,9.32
2023-04-10T11:34:12.370Z,9.27
2023-04-10T11:36:42.501Z,9.35
2023-04-10T11:39:14.106Z,9.57
2023-04-10T11:41:46.228Z,10.00
2023-04-10T11:44:27.825Z,9.80
2023-04-10T11:50:14.679Z,9.00
2023-04-10T11:52:42.918Z,9.48
2023-04-10T11:55:11.297Z,9.25
2023-04-10T11:57:39.631Z,8.40
2023-04-10T12:00:08.676Z,9.60
2023-04-10T12:05:05.204Z,9.07
2023-04-10T12:07:33.930Z,7.93
2023-04-10T12:10:02.077Z,8.63
2023-04-10T12:12:37.358Z,9.32
2023-04-10T12:15:28.379Z,8.13
2023-04-10T12:17:57.127Z,9.23
2023-04-10T12:20:25.577Z,8.50
2023-04-10T12:22:55.973Z,8.07
2023-04-10T12:25:27.106Z,7.10
2023-04-10T12:27:55.284Z,7.72
2023-04-10T12:30:23.661Z,7.63
2023-04-10T12:32:53.133Z,7.88
2023-04-10T12:35:21.574Z,7.78
2023-04-10T12:37:53.556Z,7.63
2023-04-10T12:40:22.142Z,7.40
2023-04-10T12:42:50.264Z,7.90
2023-04-10T12:45:18.515Z,7.35
2023-04-10T12:47:51.209Z,7.25
2023-04-10T12:50:20.934Z,7.68
2023-04-10T12:53:09.220Z,6.95
2023-04-10T12:55:37.583Z,7.65
2023-04-10T12:58:19.473Z,7.60
2023-04-10T13:00:48.917Z,7.47
2023-04-10T13:03:17.292Z,7.35
2023-04-10T13:05:45.748Z,7.15
2023-04-10T13:08:14.321Z,7.57
2023-04-10T13:10:42.610Z,7.40
2023-04-10T13:13:11.169Z,7.43
2023-04-10T13:15:39.854Z,7.03
2023-04-10T13:20:37.232Z,6.35
2023-04-10T13:23:05.663Z,6.95
2023-04-10T13:25:35.547Z,7.00
2023-04-10T13:28:03.788Z,6.13
2023-04-10T13:30:32.120Z,6.60
2023-04-10T13:33:00.354Z,6.35
2023-04-10T13:35:28.685Z,6.55
2023-04-10T13:37:56.735Z,6.88
2023-04-10T13:40:24.905Z,7.20
2023-04-10T13:42:53.263Z,6.53
2023-04-10T13:45:21.533Z,6.30
2023-04-10T13:47:49.764Z,6.45
2023-04-10T13:50:18.403Z,6.10
2023-04-10T13:52:46.735Z,6.38
2023-04-10T13:55:14.986Z,6.15
2023-04-10T13:57:43.294Z,6.43
2023-04-10T14:00:13.420Z,6.22
2023-04-10T14:02:41.523Z,7.25
2023-04-10T14:05:10.656Z,6.53
2023-04-10T14:07:38.756Z,7.30
2023-04-10T14:10:08.027Z,7.45
2023-04-10T14:12:37.594Z,6.70
2023-04-10T14:15:06.766Z,6.50
2023-04-10T14:17:35.014Z,7.10
2023-04-10T14:20:03.294Z,6.47
2023-04-10T14:22:31.575Z,7.65
2023-04-10T14:25:11.736Z,7.03
2023-04-10T14:27:41.147Z,7.43
2023-04-10T14:30:10.362Z,7.18
2023-04-10T14:32:41.386Z,6.72
2023-04-10T14:35:10.170Z,7.40
2023-04-10T14:37:39.204Z,7.82
2023-04-10T14:40:08.234Z,7.85
2023-04-10T14:42:36.388Z,7.00
2023-04-10T14:45:04.808Z,8.02
2023-04-10T14:47:33.513Z,7.55
2023-04-10T14:50:01.954Z,8.23
2023-04-10T14:52:30.396Z,7.18
2023-04-10T14:54:58.521Z,7.85
2023-04-10T14:57:26.820Z,7.25
2023-04-10T14:59:55.051Z,7.93
2023-04-10T15:02:23.297Z,7.78
2023-04-10T15:04:51.916Z,8.23
2023-04-10T15:09:48.629Z,7.63
2023-04-10T15:14:44.780Z,7.78
2023-04-10T15:17:15.827Z,7.43
2023-04-10T15:19:44.155Z,9.15
2023-04-10T15:22:12.532Z,7.28
2023-04-10T15:24:50.058Z,8.75
2023-04-10T15:27:22.306Z,9.20
2023-04-10T15:29:50.781Z,9.45
2023-04-10T15:32:19.070Z,8.43
2023-04-10T15:34:47.386Z,8.63
2023-04-10T15:37:15.593Z,9.52
2023-04-10T15:39:43.780Z,9.73
2023-04-10T15:42:12.323Z,8.27
2023-04-10T15:44:40.542Z,8.27
2023-04-10T15:47:08.953Z,9.05
2023-04-10T15:49:38.729Z,8.10
2023-04-10T15:52:07.662Z,7.75
2023-04-10T15:57:04.559Z,8.38
2023-04-10T16:02:01.551Z,8.00
2023-04-10T16:04:30.722Z,7.75
2023-04-10T16:06:59.073Z,7.22
2023-04-10T16:09:27.384Z,8.20
2023-04-10T16:11:56.070Z,8.45
2023-04-10T16:14:24.528Z,7.45
2023-04-10T16:16:52.774Z,7.80
2023-04-10T16:19:21.319Z,8.68
2023-04-10T16:21:49.641Z,7.90
2023-04-10T16:24:17.900Z,7.20
2023-04-10T16:26:46.203Z,8.40
2023-04-10T16:29:14.558Z,7.93
2023-04-10T16:31:42.960Z,8.40
2023-04-10T16:34:11.288Z,7.57
2023-04-10T16:36:39.554Z,7.75
2023-04-10T16:39:08.021Z,7.57
2023-04-10T16:41:36.169Z,8.27
2023-04-10T16:44:04.462Z,7.28
2023-04-10T16:46:32.798Z,7.97
2023-04-10T16:49:01.193Z,7.57
2023-04-10T16:51:32.593Z,7.75
2023-04-10T16:54:00.901Z,7.82
2023-04-10T16:56:29.118Z,7.90
2023-04-10T16:58:57.637Z,7.55
2023-04-10T17:03:55.175Z,8.40
2023-04-10T17:06:23.485Z,7.47
2023-04-10T17:08:51.663Z,7.85
2023-04-10T17:11:21.325Z,7.72
2023-04-10T17:13:49.679Z,8.18
2023-04-10T17:16:17.835Z,9.32
2023-04-10T17:18:46.153Z,8.57
2023-04-10T17:21:14.895Z,8.25
2023-04-10T17:26:15.773Z,8.10
2023-04-10T17:28:44.939Z,7.78
2023-04-10T17:31:14.124Z,8.43
2023-04-10T17:33:42.739Z,8.35
2023-04-10T17:36:12.635Z,9.27
2023-04-10T17:38:42.415Z,8.10
2023-04-10T17:41:14.365Z,7.97
2023-04-10T17:43:42.704Z,8.77
2023-04-10T17:46:14.931Z,9.13
2023-04-10T17:48:44.286Z,8.43
2023-04-10T17:51:12.718Z,8.48
2023-04-10T17:53:40.948Z,8.25
2023-04-10T17:56:17.205Z,8.73
2023-04-10T17:58:45.584Z,8.15
2023-04-10T18:01:21.466Z,8.23
2023-04-10T18:03:49.849Z,8.50
2023-04-10T18:06:17.976Z,8.27
2023-04-10T18:08:46.201Z,9.02
2023-04-10T18:11:14.535Z,7.65
2023-04-10T18:13:42.830Z,8.52
2023-04-10T18:16:11.305Z,8.35
2023-04-10T18:18:39.472Z,7.47
2023-04-10T18:21:08.745Z,8.25
2023-04-10T18:23:36.900Z,8.10
2023-04-10T18:26:04.989Z,8.10
2023-04-10T18:28:33.372Z,7.80
2023-04-10T18:31:02.072Z,8.15
2023-04-10T18:33:30.580Z,7.43
2023-04-10T18:35:58.768Z,8.80
2023-04-10T18:38:27.554Z,8.30
2023-04-10T18:43:27.148Z,8.48
2023-04-10T18:48:23.549Z,9.10
2023-04-10T18:50:53.167Z,10.25
2023-04-10T18:53:22.273Z,10.23
2023-04-10T18:55:55.165Z,10.05
2023-04-10T18:58:23.489Z,10.98
2023-04-10T19:00:51.692Z,12.15
2023-04-10T19:03:21.133Z,12.02
2023-04-10T19:05:49.578Z,12.85
2023-04-10T19:08:17.833Z,14.25
2023-04-10T19:10:46.160Z,12.10
2023-04-10T19:13:14.512Z,12.90
2023-04-10T19:15:44.165Z,12.77
2023-04-10T19:18:14.068Z,12.15
2023-04-10T19:20:50.758Z,13.18
2023-04-10T19:23:21.753Z,13.63
2023-04-10T19:25:53.808Z,12.70
2023-04-10T19:28:23.741Z,14.82
2023-04-10T19:30:52.978Z,14.48
2023-04-10T19:33:21.188Z,14.00
2023-04-10T19:35:49.529Z,12.57
2023-04-10T19:38:18.090Z,14.80
2023-04-10T19:40:46.293Z,12.95
2023-04-10T19:43:14.580Z,15.07
2023-04-10T19:45:42.768Z,14.93
2023-04-10T19:48:14.104Z,16.30
2023-04-10T19:50:42.542Z,15.25
2023-04-10T19:53:10.760Z,16.85
2023-04-10T19:55:39.147Z,15.52
2023-04-10T19:58:10.514Z,15.77
2023-04-10T20:00:41.754Z,15.65
2023-04-10T20:03:10.116Z,16.40
2023-04-10T20:08:06.549Z,16.58
2023-04-10T20:10:35.412Z,16.05
2023-04-10T20:15:31.615Z,15.33
2023-04-10T20:18:00.053Z,16.08
2023-04-10T20:20:28.425Z,15.57
2023-04-10T20:22:56.632Z,14.88
2023-04-10T20:25:28.032Z,14.85
2023-04-10T20:27:56.433Z,16.15
2023-04-10T20:30:24.778Z,17.58
2023-04-10T20:32:53.006Z,15.07
2023-04-10T20:35:21.379Z,15.63
2023-04-10T20:37:49.726Z,14.23
2023-04-10T20:40:18.321Z,15.48
2023-04-10T20:42:46.488Z,15.85
2023-04-10T20:45:14.993Z,16.15
2023-04-10T20:47:43.392Z,13.95
2023-04-10T20:50:13.025Z,16.30
2023-04-10T20:52:41.364Z,16.63
2023-04-10T20:55:10.087Z,14.85
2023-04-10T21:00:07.303Z,14.15
2023-04-10T21:02:35.884Z,15.50
2023-04-10T21:07:32.694Z,15.15
2023-04-10T21:10:00.808Z,15.32
2023-04-10T21:13:09.043Z,15.57
2023-04-10T21:15:37.414Z,14.27
2023-04-10T21:20:40.957Z,15.60
2023-04-10T21:25:37.356Z,14.77
2023-04-10T21:28:06.141Z,14.43
2023-04-10T21:30:36.688Z,14.15
2023-04-10T21:33:05.059Z,13.38
2023-04-10T21:35:33.381Z,14.95
2023-04-10T21:38:02.317Z,14.30
2023-04-10T21:40:31.023Z,15.10
2023-04-10T21:42:59.398Z,13.75
2023-04-10T21:45:27.577Z,14.10
2023-04-10T21:47:55.930Z,14.95
2023-04-10T21:50:25.889Z,14.88
2023-04-10T21:52:54.272Z,13.90
2023-04-10T21:55:22.520Z,14.05
2023-04-10T21:57:50.881Z,14.30
2023-04-10T22:00:20.644Z,13.50
2023-04-10T22:02:52.700Z,13.35
2023-04-10T22:05:21.242Z,13.75
2023-04-10T22:07:49.337Z,13.82
2023-04-10T22:10:17.807Z,13.73
2023-04-10T22:12:48.492Z,15.68
2023-04-10T22:15:17.504Z,14.73
2023-04-10T22:22:42.537Z,15.80
2023-04-10T22:25:10.824Z,15.52
2023-04-10T22:27:39.096Z,14.13
2023-04-10T22:30:08.173Z,15.32
2023-04-10T22:32:36.536Z,15.43
2023-04-10T22:35:05.084Z,16.38
2023-04-10T22:37:33.720Z,16.52
2023-04-10T22:42:31.874Z,16.93
2023-04-10T22:45:00.515Z,17.38
2023-04-10T22:47:28.694Z,16.20
2023-04-10T22:49:56.901Z,17.33
2023-04-10T22:52:25.094Z,15.48
2023-04-10T22:54:53.312Z,16.55
2023-04-10T22:57:21.436Z,16.48
2023-04-10T22:59:49.755Z,17.48
2023-04-10T23:02:18.009Z,16.73
2023-04-10T23:04:46.517Z,17.20
2023-04-10T23:07:14.915Z,15.27
2023-04-10T23:09:43.196Z,16.67
2023-04-10T23:12:11.319Z,19.08
2023-04-10T23:14:39.652Z,17.13
2023-04-10T23:18:17.446Z,18.08
2023-04-10T23:23:14.779Z,16.83
2023-04-10T23:25:43.434Z,17.63
2023-04-10T23:30:40.144Z,16.70
2023-04-10T23:35:36.790Z,18.52
2023-04-10T23:38:04.961Z,17.48
2023-04-10T23:40:33.217Z,20.95
2023-04-10T23:43:01.576Z,19.70
2023-04-10T23:45:29.780Z,17.38
2023-04-10T23:47:57.988Z,17.85
2023-04-10T23:50:26.255Z,18.30
2023-04-10T23:52:54.448Z,18.35
2023-04-10T23:55:23.137Z,17.17
